Terminal Aerodrome Forecast
Issued by NWS

Home | Current Version | Previous Version | Text Only | Print | Product List | Glossary On
Versions: 1 2 3 4 5 6 7 8 9 10 11 12 13 14 15 16 17 18 19 20
793
FTUS45 KTFX 180527
TAFLWT
TAF
KLWT 180527Z 1806/1906 06010KT 3SM -SN BLSN BKN015 OVC050
      WS020/27025KT
     FM181000 28010G18KT 5SM BLSN VCSH BKN015 OVC040
     FM181400 32007KT 2SM -SN BR OVC010=

USA.gov is the U.S. government's official web portal to all federal, state and local government web resources and services.